sensor_id;sensor_type;location;lat;lon;timestamp;pressure;altitude;pressure_sealevel;temperature;humidity
55044;BME280;54902;50.420;18.854;2023-03-20T00:00:30;101293.45;;;8.98;53.29
55044;BME280;54902;50.420;18.854;2023-03-20T00:01:01;101288.86;;;8.99;53.29
55044;BME280;54902;50.420;18.854;2023-03-20T00:01:32;101293.45;;;8.98;53.29
55044;BME280;54902;50.420;18.854;2023-03-20T00:02:05;101291.70;;;8.97;53.30
55044;BME280;54902;50.420;18.854;2023-03-20T00:02:37;101292.55;;;8.98;53.30
55044;BME280;54902;50.420;18.854;2023-03-20T00:03:11;101288.97;;;8.97;53.30
55044;BME280;54902;50.420;18.854;2023-03-20T00:03:42;101295.28;;;8.98;53.30
55044;BME280;54902;50.420;18.854;2023-03-20T00:04:14;101280.79;;;8.97;53.33
55044;BME280;54902;50.420;18.854;2023-03-20T00:04:45;101292.67;;;8.96;53.34
55044;BME280;54902;50.420;18.854;2023-03-20T00:05:18;101293.68;;;8.95;53.34
55044;BME280;54902;50.420;18.854;2023-03-20T00:05:50;101287.21;;;8.96;53.37
55044;BME280;54902;50.420;18.854;2023-03-20T00:06:24;101292.67;;;8.96;53.35
55044;BME280;54902;50.420;18.854;2023-03-20T00:06:56;101292.67;;;8.96;53.37
55044;BME280;54902;50.420;18.854;2023-03-20T00:07:27;101289.94;;;8.96;53.35
55044;BME280;54902;50.420;18.854;2023-03-20T00:07:58;101299.01;;;8.97;53.35
55044;BME280;54902;50.420;18.854;2023-03-20T00:08:29;101295.39;;;8.96;53.33
55044;BME280;54902;50.420;18.854;2023-03-20T00:09:01;101288.41;;;8.92;53.39
55044;BME280;54902;50.420;18.854;2023-03-20T00:09:33;101286.36;;;8.96;53.33
55044;BME280;54902;50.420;18.854;2023-03-20T00:10:06;101289.94;;;8.96;53.37
55044;BME280;54902;50.420;18.854;2023-03-20T00:10:44;101294.53;;;8.96;53.34
55044;BME280;54902;50.420;18.854;2023-03-20T00:12:00;101288.22;;;8.95;53.36
55044;BME280;54902;50.420;18.854;2023-03-20T00:12:32;101288.22;;;8.95;53.37
55044;BME280;54902;50.420;18.854;2023-03-20T00:13:03;101288.22;;;8.95;53.37
55044;BME280;54902;50.420;18.854;2023-03-20T00:13:36;101288.22;;;8.95;53.37
55044;BME280;54902;50.420;18.854;2023-03-20T00:14:10;101288.22;;;8.95;53.36
55044;BME280;54902;50.420;18.854;2023-03-20T00:14:42;101293.68;;;8.95;53.36
55044;BME280;54902;50.420;18.854;2023-03-20T00:15:21;101284.60;;;8.95;53.36
55044;BME280;54902;50.420;18.854;2023-03-20T00:15:53;101286.36;;;8.96;53.35
55044;BME280;54902;50.420;18.854;2023-03-20T00:16:29;101290.95;;;8.95;53.36
55044;BME280;54902;50.420;18.854;2023-03-20T00:17:09;101293.68;;;8.95;53.38
55044;BME280;54902;50.420;18.854;2023-03-20T00:17:41;101294.53;;;8.96;53.40
55044;BME280;54902;50.420;18.854;2023-03-20T00:18:15;101288.22;;;8.95;53.38
55044;BME280;54902;50.420;18.854;2023-03-20T00:18:49;101295.39;;;8.96;53.40
55044;BME280;54902;50.420;18.854;2023-03-20T00:19:22;101296.29;;;8.97;53.39
55044;BME280;54902;50.420;18.854;2023-03-20T00:19:53;101292.67;;;8.96;53.44
55044;BME280;54902;50.420;18.854;2023-03-20T00:20:25;101300.85;;;8.96;53.44
55044;BME280;54902;50.420;18.854;2023-03-20T00:20:56;101296.39;;;8.95;53.44
55044;BME280;54902;50.420;18.854;2023-03-20T00:21:27;101289.94;;;8.96;53.43
55044;BME280;54902;50.420;18.854;2023-03-20T00:21:59;101296.29;;;8.97;53.41
55044;BME280;54902;50.420;18.854;2023-03-20T00:22:30;101297.14;;;8.97;53.43
55044;BME280;54902;50.420;18.854;2023-03-20T00:23:02;101300.85;;;8.96;53.44
55044;BME280;54902;50.420;18.854;2023-03-20T00:23:34;101300.85;;;8.96;53.45
55044;BME280;54902;50.420;18.854;2023-03-20T00:24:06;101299.88;;;8.97;53.42
55044;BME280;54902;50.420;18.854;2023-03-20T00:24:37;101294.53;;;8.96;53.44
55044;BME280;54902;50.420;18.854;2023-03-20T00:25:18;101298.90;;;8.98;53.45
55044;BME280;54902;50.420;18.854;2023-03-20T00:25:50;101294.43;;;8.97;53.44
55044;BME280;54902;50.420;18.854;2023-03-20T00:26:27;101297.14;;;8.97;53.44
55044;BME280;54902;50.420;18.854;2023-03-20T00:27:00;101296.17;;;8.98;53.44
55044;BME280;54902;50.420;18.854;2023-03-20T00:27:32;101295.28;;;8.98;53.44
55044;BME280;54902;50.420;18.854;2023-03-20T00:28:46;101293.45;;;8.98;53.43
55044;BME280;54902;50.420;18.854;2023-03-20T00:29:24;101299.88;;;8.97;53.42
55044;BME280;54902;50.420;18.854;2023-03-20T00:29:56;101289.83;;;8.98;53.45
55044;BME280;54902;50.420;18.854;2023-03-20T00:30:29;101298.90;;;8.98;53.45
55044;BME280;54902;50.420;18.854;2023-03-20T00:31:00;101297.14;;;8.97;53.45
55044;BME280;54902;50.420;18.854;2023-03-20T00:31:34;101295.28;;;8.98;53.45
55044;BME280;54902;50.420;18.854;2023-03-20T00:32:11;101298.90;;;8.98;53.47
55044;BME280;54902;50.420;18.854;2023-03-20T00:32:43;101298.90;;;8.98;53.49
55044;BME280;54902;50.420;18.854;2023-03-20T00:33:14;101297.04;;;8.99;53.49
55044;BME280;54902;50.420;18.854;2023-03-20T00:33:46;101300.66;;;8.99;53.48
55044;BME280;54902;50.420;18.854;2023-03-20T00:34:18;101300.66;;;8.99;53.51
55044;BME280;54902;50.420;18.854;2023-03-20T00:34:51;101296.17;;;8.98;53.50
55044;BME280;54902;50.420;18.854;2023-03-20T00:35:29;101289.75;;;8.99;53.51
55044;BME280;54902;50.420;18.854;2023-03-20T00:36:00;101288.01;;;8.98;53.52
55044;BME280;54902;50.420;18.854;2023-03-20T00:36:32;101294.31;;;8.99;53.51
55044;BME280;54902;50.420;18.854;2023-03-20T00:37:03;101295.20;;;8.99;53.50
55044;BME280;54902;50.420;18.854;2023-03-20T00:37:35;101290.73;;;8.98;53.51
55044;BME280;54902;50.420;18.854;2023-03-20T00:38:05;101296.17;;;8.98;53.51
55044;BME280;54902;50.420;18.854;2023-03-20T00:38:36;101290.73;;;8.98;53.53
55044;BME280;54902;50.420;18.854;2023-03-20T00:39:08;101301.63;;;8.98;53.51
55044;BME280;54902;50.420;18.854;2023-03-20T00:39:39;101296.17;;;8.98;53.51
55044;BME280;54902;50.420;18.854;2023-03-20T00:40:11;101293.45;;;8.98;53.52
55044;BME280;54902;50.420;18.854;2023-03-20T00:40:43;101296.17;;;8.98;53.51
55044;BME280;54902;50.420;18.854;2023-03-20T00:42:03;101295.28;;;8.98;53.53
55044;BME280;54902;50.420;18.854;2023-03-20T00:42:38;101291.70;;;8.97;53.50
55044;BME280;54902;50.420;18.854;2023-03-20T00:43:11;101288.97;;;8.97;53.52
55044;BME280;54902;50.420;18.854;2023-03-20T00:43:42;101293.45;;;8.98;53.55
55044;BME280;54902;50.420;18.854;2023-03-20T00:44:56;101302.59;;;8.97;53.57
55044;BME280;54902;50.420;18.854;2023-03-20T00:45:33;101298.01;;;8.98;53.56
55044;BME280;54902;50.420;18.854;2023-03-20T00:46:10;101294.43;;;8.97;53.54
55044;BME280;54902;50.420;18.854;2023-03-20T00:46:44;101298.90;;;8.98;53.57
55044;BME280;54902;50.420;18.854;2023-03-20T00:47:19;101297.14;;;8.97;53.55
55044;BME280;54902;50.420;18.854;2023-03-20T00:47:51;101291.70;;;8.97;53.56
55044;BME280;54902;50.420;18.854;2023-03-20T00:48:23;101298.12;;;8.96;53.55
55044;BME280;54902;50.420;18.854;2023-03-20T00:48:54;101291.70;;;8.97;53.57
55044;BME280;54902;50.420;18.854;2023-03-20T00:49:28;101291.70;;;8.97;53.60
55044;BME280;54902;50.420;18.854;2023-03-20T00:50:00;101297.14;;;8.97;53.56
55044;BME280;54902;50.420;18.854;2023-03-20T00:50:32;101289.94;;;8.96;53.62
55044;BME280;54902;50.420;18.854;2023-03-20T00:51:04;101287.21;;;8.96;53.58
55044;BME280;54902;50.420;18.854;2023-03-20T00:51:35;101295.39;;;8.96;53.59
55044;BME280;54902;50.420;18.854;2023-03-20T00:52:09;101286.25;;;8.97;53.57
55044;BME280;54902;50.420;18.854;2023-03-20T00:52:42;101288.12;;;8.97;53.57
55044;BME280;54902;50.420;18.854;2023-03-20T00:53:14;101289.94;;;8.96;53.59
55044;BME280;54902;50.420;18.854;2023-03-20T00:53:45;101280.79;;;8.97;53.61
55044;BME280;54902;50.420;18.854;2023-03-20T00:54:16;101291.70;;;8.97;53.61
55044;BME280;54902;50.420;18.854;2023-03-20T00:54:47;101289.94;;;8.96;53.64
55044;BME280;54902;50.420;18.854;2023-03-20T00:55:21;101288.97;;;8.97;53.60
55044;BME280;54902;50.420;18.854;2023-03-20T00:55:52;101280.79;;;8.97;53.57
55044;BME280;54902;50.420;18.854;2023-03-20T00:56:32;101285.39;;;8.97;53.62
55044;BME280;54902;50.420;18.854;2023-03-20T00:57:13;101288.97;;;8.97;53.62
55044;BME280;54902;50.420;18.854;2023-03-20T00:57:50;101286.25;;;8.97;53.61
55044;BME280;54902;50.420;18.854;2023-03-20T00:58:23;101284.48;;;8.96;53.63
55044;BME280;54902;50.420;18.854;2023-03-20T00:58:53;101291.70;;;8.97;53.62
55044;BME280;54902;50.420;18.854;2023-03-20T00:59:31;101286.25;;;8.97;53.60
55044;BME280;54902;50.420;18.854;2023-03-20T01:00:12;101285.39;;;8.97;53.58
55044;BME280;54902;50.420;18.854;2023-03-20T01:00:44;101285.39;;;8.97;53.61
55044;BME280;54902;50.420;18.854;2023-03-20T01:01:15;101283.52;;;8.97;53.64
55044;BME280;54902;50.420;18.854;2023-03-20T01:01:48;101286.25;;;8.97;53.66
55044;BME280;54902;50.420;18.854;2023-03-20T01:02:20;101290.84;;;8.97;53.66
55044;BME280;54902;50.420;18.854;2023-03-20T01:02:55;101288.97;;;8.97;53.64
55044;BME280;54902;50.420;18.854;2023-03-20T01:03:27;101286.25;;;8.97;53.63
55044;BME280;54902;50.420;18.854;2023-03-20T01:04:01;101291.70;;;8.97;53.63
55044;BME280;54902;50.420;18.854;2023-03-20T01:04:39;101291.70;;;8.97;53.63
55044;BME280;54902;50.420;18.854;2023-03-20T01:05:11;101288.12;;;8.97;53.61
55044;BME280;54902;50.420;18.854;2023-03-20T01:05:43;101280.05;;;8.95;53.64
55044;BME280;54902;50.420;18.854;2023-03-20T01:06:15;101284.38;;;8.98;53.66
55044;BME280;54902;50.420;18.854;2023-03-20T01:06:46;101279.04;;;8.96;53.64
55044;BME280;54902;50.420;18.854;2023-03-20T01:07:17;101279.94;;;8.97;53.61
55044;BME280;54902;50.420;18.854;2023-03-20T01:07:48;101276.33;;;8.96;53.62
55044;BME280;54902;50.420;18.854;2023-03-20T01:08:23;101286.25;;;8.97;53.62
55044;BME280;54902;50.420;18.854;2023-03-20T01:08:55;101281.77;;;8.96;53.63
55044;BME280;54902;50.420;18.854;2023-03-20T01:09:27;101279.04;;;8.96;53.65
55044;BME280;54902;50.420;18.854;2023-03-20T01:09:58;101278.18;;;8.96;53.64
55044;BME280;54902;50.420;18.854;2023-03-20T01:10:31;101283.52;;;8.97;53.65
55044;BME280;54902;50.420;18.854;2023-03-20T01:11:02;101278.18;;;8.96;53.63
55044;BME280;54902;50.420;18.854;2023-03-20T01:11:34;101279.04;;;8.96;53.65
55044;BME280;54902;50.420;18.854;2023-03-20T01:12:05;101276.33;;;8.96;53.67
55044;BME280;54902;50.420;18.854;2023-03-20T01:12:38;101284.48;;;8.96;53.65
55044;BME280;54902;50.420;18.854;2023-03-20T01:13:22;101287.21;;;8.96;53.67
55044;BME280;54902;50.420;18.854;2023-03-20T01:13:53;101280.05;;;8.95;53.64
55044;BME280;54902;50.420;18.854;2023-03-20T01:14:24;101285.51;;;8.95;53.62
55044;BME280;54902;50.420;18.854;2023-03-20T01:14:56;101280.05;;;8.95;53.62
55044;BME280;54902;50.420;18.854;2023-03-20T01:15:32;101287.33;;;8.95;53.61
55044;BME280;54902;50.420;18.854;2023-03-20T01:16:04;101280.91;;;8.96;53.63
55044;BME280;54902;50.420;18.854;2023-03-20T01:16:35;101282.77;;;8.95;53.66
55044;BME280;54902;50.420;18.854;2023-03-20T01:17:48;101280.05;;;8.95;53.68
55044;BME280;54902;50.420;18.854;2023-03-20T01:18:22;101281.02;;;8.94;53.69
55044;BME280;54902;50.420;18.854;2023-03-20T01:18:53;101281.02;;;8.94;53.70
55044;BME280;54902;50.420;18.854;2023-03-20T01:19:26;101283.75;;;8.94;53.69
55044;BME280;54902;50.420;18.854;2023-03-20T01:19:57;101284.60;;;8.95;53.68
55044;BME280;54902;50.420;18.854;2023-03-20T01:20:29;101279.27;;;8.93;53.67
55044;BME280;54902;50.420;18.854;2023-03-20T01:21:01;101279.27;;;8.93;53.66
55044;BME280;54902;50.420;18.854;2023-03-20T01:21:31;101274.68;;;8.94;53.65
55044;BME280;54902;50.420;18.854;2023-03-20T01:22:02;101277.41;;;8.94;53.67
55044;BME280;54902;50.420;18.854;2023-03-20T01:22:34;101281.02;;;8.94;53.66
55044;BME280;54902;50.420;18.854;2023-03-20T01:23:05;101273.81;;;8.93;53.65
55044;BME280;54902;50.420;18.854;2023-03-20T01:23:36;101275.68;;;8.93;53.64
55044;BME280;54902;50.420;18.854;2023-03-20T01:24:07;101278.41;;;8.93;53.68
55044;BME280;54902;50.420;18.854;2023-03-20T01:24:39;101279.27;;;8.93;53.66
55044;BME280;54902;50.420;18.854;2023-03-20T01:25:10;101275.68;;;8.93;53.68
55044;BME280;54902;50.420;18.854;2023-03-20T01:25:41;101283.75;;;8.94;53.66
55044;BME280;54902;50.420;18.854;2023-03-20T01:26:27;101282.85;;;8.94;53.64
55044;BME280;54902;50.420;18.854;2023-03-20T01:26:56;101277.51;;;8.92;53.66
55044;BME280;54902;50.420;18.854;2023-03-20T01:27:27;101274.79;;;8.92;53.67
55044;BME280;54902;50.420;18.854;2023-03-20T01:27:58;101278.41;;;8.93;53.68
55044;BME280;54902;50.420;18.854;2023-03-20T01:28:30;101278.41;;;8.93;53.68
55044;BME280;54902;50.420;18.854;2023-03-20T01:29:03;101283.86;;;8.93;53.68
55044;BME280;54902;50.420;18.854;2023-03-20T01:29:34;101280.23;;;8.92;53.69
55044;BME280;54902;50.420;18.854;2023-03-20T01:30:15;101271.20;;;8.92;53.67
55044;BME280;54902;50.420;18.854;2023-03-20T01:30:46;101279.37;;;8.92;53.67
55044;BME280;54902;50.420;18.854;2023-03-20T01:31:18;101281.24;;;8.91;53.66
55044;BME280;54902;50.420;18.854;2023-03-20T01:31:50;101275.80;;;8.91;53.66
55044;BME280;54902;50.420;18.854;2023-03-20T01:32:21;101277.63;;;8.91;53.67
55044;BME280;54902;50.420;18.854;2023-03-20T01:32:53;101275.80;;;8.91;53.69
55044;BME280;54902;50.420;18.854;2023-03-20T01:33:24;101282.10;;;8.92;53.69
55044;BME280;54902;50.420;18.854;2023-03-20T01:33:58;101278.52;;;8.91;53.67
55044;BME280;54902;50.420;18.854;2023-03-20T01:34:29;101272.18;;;8.91;53.69
55044;BME280;54902;50.420;18.854;2023-03-20T01:35:00;101271.20;;;8.92;53.71
55044;BME280;54902;50.420;18.854;2023-03-20T01:35:31;101281.24;;;8.91;53.70
55044;BME280;54902;50.420;18.854;2023-03-20T01:36:02;101280.34;;;8.91;53.70
55044;BME280;54902;50.420;18.854;2023-03-20T01:36:36;101275.80;;;8.91;53.70
55044;BME280;54902;50.420;18.854;2023-03-20T01:37:16;101281.24;;;8.91;53.70
55044;BME280;54902;50.420;18.854;2023-03-20T01:37:48;101280.34;;;8.91;53.71
55044;BME280;54902;50.420;18.854;2023-03-20T01:38:21;101276.65;;;8.92;53.71
55044;BME280;54902;50.420;18.854;2023-03-20T01:38:55;101256.46;;;8.82;53.69
55044;BME280;54902;50.420;18.854;2023-03-20T01:39:33;101280.34;;;8.91;53.70
55044;BME280;54902;50.420;18.854;2023-03-20T01:40:30;101281.24;;;8.91;53.78
55044;BME280;54902;50.420;18.854;2023-03-20T01:40:57;101273.06;;;8.91;53.77
55044;BME280;54902;50.420;18.854;2023-03-20T01:41:31;101281.24;;;8.91;53.76
55044;BME280;54902;50.420;18.854;2023-03-20T01:42:04;101275.80;;;8.91;53.74
55044;BME280;54902;50.420;18.854;2023-03-20T01:42:36;101281.24;;;8.91;53.76
55044;BME280;54902;50.420;18.854;2023-03-20T01:43:15;101282.21;;;8.90;53.77
55044;BME280;54902;50.420;18.854;2023-03-20T01:43:46;101280.34;;;8.91;53.76
55044;BME280;54902;50.420;18.854;2023-03-20T01:44:23;101287.66;;;8.90;53.76
55044;BME280;54902;50.420;18.854;2023-03-20T01:44:56;101279.48;;;8.90;53.77
55044;BME280;54902;50.420;18.854;2023-03-20T01:45:34;101227.00;;;8.62;53.76
55044;BME280;54902;50.420;18.854;2023-03-20T01:46:14;101278.59;;;8.90;53.76
55044;BME280;54902;50.420;18.854;2023-03-20T01:46:51;101278.59;;;8.90;53.76
55044;BME280;54902;50.420;18.854;2023-03-20T01:47:24;101279.48;;;8.90;53.76
55044;BME280;54902;50.420;18.854;2023-03-20T01:47:57;101275.87;;;8.90;53.77
55044;BME280;54902;50.420;18.854;2023-03-20T01:50:36;101284.94;;;8.90;53.83
55044;BME280;54902;50.420;18.854;2023-03-20T01:51:07;101281.32;;;8.90;53.83
55044;BME280;54902;50.420;18.854;2023-03-20T01:51:38;101284.94;;;8.90;53.81
55044;BME280;54902;50.420;18.854;2023-03-20T01:52:09;101287.77;;;8.89;53.82
55044;BME280;54902;50.420;18.854;2023-03-20T01:52:40;101279.59;;;8.89;53.81
55044;BME280;54902;50.420;18.854;2023-03-20T01:53:15;101283.18;;;8.89;53.78
55044;BME280;54902;50.420;18.854;2023-03-20T01:54:00;101284.15;;;8.88;53.79
55044;BME280;54902;50.420;18.854;2023-03-20T01:54:29;101281.42;;;8.88;53.79
55044;BME280;54902;50.420;18.854;2023-03-20T01:55:03;101280.45;;;8.89;53.79
55044;BME280;54902;50.420;18.854;2023-03-20T01:55:35;101280.45;;;8.89;53.81
55044;BME280;54902;50.420;18.854;2023-03-20T01:56:08;101283.18;;;8.89;53.81
55044;BME280;54902;50.420;18.854;2023-03-20T01:56:45;101283.18;;;8.89;53.82
55044;BME280;54902;50.420;18.854;2023-03-20T01:57:21;101283.18;;;8.89;53.83
55044;BME280;54902;50.420;18.854;2023-03-20T01:57:56;101274.15;;;8.89;53.83
55044;BME280;54902;50.420;18.854;2023-03-20T01:58:34;101276.88;;;8.89;53.83
55044;BME280;54902;50.420;18.854;2023-03-20T01:59:59;101281.42;;;8.88;53.88
55044;BME280;54902;50.420;18.854;2023-03-20T02:00:33;101282.33;;;8.89;53.87
55044;BME280;54902;50.420;18.854;2023-03-20T02:01:07;101276.95;;;8.87;53.85
55044;BME280;54902;50.420;18.854;2023-03-20T02:01:42;101287.77;;;8.89;53.88
55044;BME280;54902;50.420;18.854;2023-03-20T02:02:20;101282.33;;;8.89;53.89
55044;BME280;54902;50.420;18.854;2023-03-20T02:02:52;101283.18;;;8.89;53.93
55044;BME280;54902;50.420;18.854;2023-03-20T02:03:25;101277.73;;;8.89;53.93
55044;BME280;54902;50.420;18.854;2023-03-20T02:03:56;101282.33;;;8.89;53.93
55044;BME280;54902;50.420;18.854;2023-03-20T02:04:32;101281.42;;;8.88;53.95
55044;BME280;54902;50.420;18.854;2023-03-20T02:05:08;101290.49;;;8.89;53.92
55044;BME280;54902;50.420;18.854;2023-03-20T02:05:41;101288.74;;;8.88;53.94
55044;BME280;54902;50.420;18.854;2023-03-20T02:06:13;101281.42;;;8.88;53.91
55044;BME280;54902;50.420;18.854;2023-03-20T02:06:45;101283.30;;;8.88;53.94
55044;BME280;54902;50.420;18.854;2023-03-20T02:07:18;101286.88;;;8.88;53.93
55044;BME280;54902;50.420;18.854;2023-03-20T02:08:39;101286.88;;;8.88;54.00
55044;BME280;54902;50.420;18.854;2023-03-20T02:08:44;101283.30;;;8.88;53.95
55044;BME280;54902;50.420;18.854;2023-03-20T02:09:11;101286.02;;;8.88;53.95
55044;BME280;54902;50.420;18.854;2023-03-20T02:09:42;101286.02;;;8.88;53.98
55044;BME280;54902;50.420;18.854;2023-03-20T02:10:15;101288.74;;;8.88;54.02
55044;BME280;54902;50.420;18.854;2023-03-20T02:10:48;101291.48;;;8.88;53.98
55044;BME280;54902;50.420;18.854;2023-03-20T02:11:21;101286.13;;;8.86;54.01
55044;BME280;54902;50.420;18.854;2023-03-20T02:11:53;101292.33;;;8.88;54.00
55044;BME280;54902;50.420;18.854;2023-03-20T02:12:26;101292.33;;;8.88;54.02
55044;BME280;54902;50.420;18.854;2023-03-20T02:12:58;101290.57;;;8.87;54.02
55044;BME280;54902;50.420;18.854;2023-03-20T02:13:31;101293.30;;;8.87;53.96
55044;BME280;54902;50.420;18.854;2023-03-20T02:14:03;101293.30;;;8.87;53.96
55044;BME280;54902;50.420;18.854;2023-03-20T02:14:36;101290.57;;;8.87;54.02
55044;BME280;54902;50.420;18.854;2023-03-20T02:15:09;101290.57;;;8.87;54.04
55044;BME280;54902;50.420;18.854;2023-03-20T02:15:54;101289.72;;;8.87;54.04
55044;BME280;54902;50.420;18.854;2023-03-20T02:16:25;101296.02;;;8.87;54.01
55044;BME280;54902;50.420;18.854;2023-03-20T02:16:57;101296.02;;;8.87;54.00
55044;BME280;54902;50.420;18.854;2023-03-20T02:17:28;101295.16;;;8.87;53.98
55044;BME280;54902;50.420;18.854;2023-03-20T02:17:59;101296.02;;;8.87;54.01
55044;BME280;54902;50.420;18.854;2023-03-20T02:18:31;101299.75;;;8.86;53.99
55044;BME280;54902;50.420;18.854;2023-03-20T02:19:03;101294.30;;;8.86;54.00
55044;BME280;54902;50.420;18.854;2023-03-20T02:19:48;101289.83;;;8.85;53.99
55044;BME280;54902;50.420;18.854;2023-03-20T02:20:32;101297.02;;;8.86;54.04
55044;BME280;54902;50.420;18.854;2023-03-20T02:21:18;101294.30;;;8.86;54.01
55044;BME280;54902;50.420;18.854;2023-03-20T02:22:04;101293.41;;;8.86;54.02
55044;BME280;54902;50.420;18.854;2023-03-20T02:25:40;101299.75;;;8.86;54.01
55044;BME280;54902;50.420;18.854;2023-03-20T02:30:03;101297.02;;;8.86;54.03
55044;BME280;54902;50.420;18.854;2023-03-20T02:30:58;101287.96;;;8.86;54.01
55044;BME280;54902;50.420;18.854;2023-03-20T02:33:39;101293.41;;;8.86;53.96
55044;BME280;54902;50.420;18.854;2023-03-20T02:35:11;101280.12;;;8.81;53.91
55044;BME280;54902;50.420;18.854;2023-03-20T02:36:38;101295.27;;;8.85;54.05
55044;BME280;54902;50.420;18.854;2023-03-20T02:37:19;101278.47;;;8.79;54.05
55044;BME280;54902;50.420;18.854;2023-03-20T02:40:52;101287.96;;;8.86;54.03
55044;BME280;54902;50.420;18.854;2023-03-20T02:41:30;101290.68;;;8.86;54.06
55044;BME280;54902;50.420;18.854;2023-03-20T02:42:11;101284.38;;;8.85;54.02
55044;BME280;54902;50.420;18.854;2023-03-20T02:45:09;101291.57;;;8.86;54.04
55044;BME280;54902;50.420;18.854;2023-03-20T02:45:50;101288.96;;;8.85;54.05
55044;BME280;54902;50.420;18.854;2023-03-20T02:47:40;101281.65;;;8.85;54.10
55044;BME280;54902;50.420;18.854;2023-03-20T02:48:08;101288.07;;;8.84;54.07
55044;BME280;54902;50.420;18.854;2023-03-20T02:49:30;101286.23;;;8.85;54.11
55044;BME280;54902;50.420;18.854;2023-03-20T02:50:56;101288.07;;;8.84;54.11
55044;BME280;54902;50.420;18.854;2023-03-20T02:53:50;101284.48;;;8.84;54.11
55044;BME280;54902;50.420;18.854;2023-03-20T02:56:44;101277.27;;;8.83;54.11
55044;BME280;54902;50.420;18.854;2023-03-20T03:00:21;101280.97;;;8.82;54.08
55044;BME280;54902;50.420;18.854;2023-03-20T03:00:59;101275.52;;;8.82;54.08
55044;BME280;54902;50.420;18.854;2023-03-20T03:01:41;101276.42;;;8.82;54.14
55044;BME280;54902;50.420;18.854;2023-03-20T03:02:26;101281.88;;;8.82;54.16
55044;BME280;54902;50.420;18.854;2023-03-20T03:03:10;101274.66;;;8.81;54.19
55044;BME280;54902;50.420;18.854;2023-03-20T03:03:47;101277.38;;;8.81;54.16
55044;BME280;54902;50.420;18.854;2023-03-20T03:04:26;101281.88;;;8.82;54.13
55044;BME280;54902;50.420;18.854;2023-03-20T03:05:03;101277.38;;;8.81;54.15
55044;BME280;54902;50.420;18.854;2023-03-20T03:05:52;101280.12;;;8.81;54.16
55044;BME280;54902;50.420;18.854;2023-03-20T03:06:22;101279.26;;;8.81;54.13
55044;BME280;54902;50.420;18.854;2023-03-20T03:06:56;101278.36;;;8.80;54.15
55044;BME280;54902;50.420;18.854;2023-03-20T03:07:31;101288.39;;;8.80;54.13
55044;BME280;54902;50.420;18.854;2023-03-20T03:08:05;101281.09;;;8.80;54.15
55044;BME280;54902;50.420;18.854;2023-03-20T03:08:41;101285.67;;;8.80;54.13
55044;BME280;54902;50.420;18.854;2023-03-20T03:09:18;101284.78;;;8.79;54.13
55044;BME280;54902;50.420;18.854;2023-03-20T03:09:58;101283.80;;;8.80;54.08
55044;BME280;54902;50.420;18.854;2023-03-20T03:11:13;101277.50;;;8.80;54.13
55044;BME280;54902;50.420;18.854;2023-03-20T03:11:49;101282.05;;;8.79;54.16
55044;BME280;54902;50.420;18.854;2023-03-20T03:12:27;101282.05;;;8.79;54.17
55044;BME280;54902;50.420;18.854;2023-03-20T03:13:01;101285.78;;;8.78;54.15
55044;BME280;54902;50.420;18.854;2023-03-20T03:13:46;101280.34;;;8.78;54.16
55044;BME280;54902;50.420;18.854;2023-03-20T03:15:04;101283.92;;;8.79;54.15
55044;BME280;54902;50.420;18.854;2023-03-20T03:15:40;101287.62;;;8.78;54.15
55044;BME280;54902;50.420;18.854;2023-03-20T03:16:15;101291.23;;;8.78;54.15
55044;BME280;54902;50.420;18.854;2023-03-20T03:16:50;101284.89;;;8.78;54.14
55044;BME280;54902;50.420;18.854;2023-03-20T03:17:24;101281.31;;;8.77;54.16
55044;BME280;54902;50.420;18.854;2023-03-20T03:17:58;101284.02;;;8.77;54.17
55044;BME280;54902;50.420;18.854;2023-03-20T03:18:31;101277.61;;;8.78;54.15
55044;BME280;54902;50.420;18.854;2023-03-20T03:19:13;101288.51;;;8.78;54.16
55044;BME280;54902;50.420;18.854;2023-03-20T03:19:48;101278.59;;;8.77;54.17
55044;BME280;54902;50.420;18.854;2023-03-20T03:20:30;101276.16;;;8.73;54.32
55044;BME280;54902;50.420;18.854;2023-03-20T03:21:06;101284.02;;;8.77;54.16
55044;BME280;54902;50.420;18.854;2023-03-20T03:21:39;101279.55;;;8.76;54.17
55044;BME280;54902;50.420;18.854;2023-03-20T03:22:11;101286.74;;;8.77;54.17
55044;BME280;54902;50.420;18.854;2023-03-20T03:22:43;101281.31;;;8.77;54.18
55044;BME280;54902;50.420;18.854;2023-03-20T03:23:56;101278.70;;;8.76;54.18
55044;BME280;54902;50.420;18.854;2023-03-20T03:24:30;101282.27;;;8.76;54.19
55044;BME280;54902;50.420;18.854;2023-03-20T03:25:02;101285.89;;;8.77;54.20
55044;BME280;54902;50.420;18.854;2023-03-20T03:25:38;101279.55;;;8.76;54.20
55044;BME280;54902;50.420;18.854;2023-03-20T03:26:57;101279.55;;;8.76;54.22
55044;BME280;54902;50.420;18.854;2023-03-20T03:27:39;101282.27;;;8.76;54.22
55044;BME280;54902;50.420;18.854;2023-03-20T03:29:00;101282.27;;;8.76;54.23
55044;BME280;54902;50.420;18.854;2023-03-20T03:29:36;101292.31;;;8.76;54.21
55044;BME280;54902;50.420;18.854;2023-03-20T03:30:16;101280.52;;;8.75;54.21
55044;BME280;54902;50.420;18.854;2023-03-20T03:30:48;101285.98;;;8.75;54.21
55044;BME280;54902;50.420;18.854;2023-03-20T03:31:22;101284.25;;;8.74;54.21
55044;BME280;54902;50.420;18.854;2023-03-20T03:31:54;101284.25;;;8.74;54.23
55044;BME280;54902;50.420;18.854;2023-03-20T03:33:20;101283.36;;;8.74;54.22
55044;BME280;54902;50.420;18.854;2023-03-20T03:33:54;101278.80;;;8.74;54.24
55044;BME280;54902;50.420;18.854;2023-03-20T03:34:26;101279.78;;;8.73;54.25
55044;BME280;54902;50.420;18.854;2023-03-20T03:34:58;101283.36;;;8.74;54.23
55044;BME280;54902;50.420;18.854;2023-03-20T03:35:30;101277.05;;;8.73;54.24
55044;BME280;54902;50.420;18.854;2023-03-20T03:36:59;101280.74;;;8.72;54.30